FPO736 LFSL-LFPG
Flight info
| Callsign | FPO736 |
|---|---|
| Flight time | 0h 46m |
| Altitude | 18000 |
| Route | MAKOX G36 LMG A34 BALAN/N0378F170 A34 OLINO/N0383F180 A34 KOVAK |
| Aircraft | B737/M-SBDE2E3FGHIJ1J4J7LM3OP2RVWXY/LB1D1G1 |
Departure
| Time | 2026-04-30 13:44 |
|---|---|
| Airport | Brive Souillac airport (LFSL) |
Arrival
| Time | 2026-04-30 14:30 |
|---|---|
| Airport | Charles de Gaulle International Airport (LFPG) |
| Time | Latitude | Longitude | Altitude | Speed | Heading |
|---|---|---|---|---|---|
| 2026-04-30 13:24 | 45.04056 | 1.48980 | 994 ft | 0 kts | 158° |
| 2026-04-30 13:40 | 45.04043 | 1.48982 | 993 ft | 5 kts | 187° |
| 2026-04-30 13:41 | 45.03988 | 1.48946 | 991 ft | 13 kts | 205° |
| 2026-04-30 13:41 | 45.03901 | 1.48890 | 989 ft | 10 kts | 204° |
| 2026-04-30 13:41 | 45.03849 | 1.48925 | 997 ft | 9 kts | 121° |
| 2026-04-30 13:41 | 45.03822 | 1.49011 | 992 ft | 11 kts | 114° |
| 2026-04-30 13:42 | 45.03785 | 1.49127 | 994 ft | 15 kts | 116° |
| 2026-04-30 13:42 | 45.03738 | 1.49269 | 999 ft | 16 kts | 115° |
| 2026-04-30 13:42 | 45.03648 | 1.49540 | 996 ft | 15 kts | 122° |
| 2026-04-30 13:43 | 45.03609 | 1.49611 | 999 ft | 3 kts | 85° |
| 2026-04-30 13:43 | 45.03626 | 1.49623 | 1000 ft | 3 kts | 355° |
| 2026-04-30 13:43 | 45.03634 | 1.49600 | 996 ft | 3 kts | 267° |
| 2026-04-30 13:43 | 45.03664 | 1.49497 | 997 ft | 36 kts | 294° |
| 2026-04-30 13:44 | 45.03900 | 1.48770 | 990 ft | 123 kts | 295° |
| 2026-04-30 13:44 | 45.04325 | 1.47476 | 1379 ft | 152 kts | 294° |
| 2026-04-30 13:44 | 45.04829 | 1.46200 | 2250 ft | 153 kts | 315° |
| 2026-04-30 13:44 | 45.05763 | 1.45420 | 2949 ft | 162 kts | 335° |
| 2026-04-30 13:45 | 45.08056 | 1.43688 | 4561 ft | 202 kts | 331° |
| 2026-04-30 13:45 | 45.09321 | 1.42720 | 5558 ft | 212 kts | 333° |
| 2026-04-30 13:45 | 45.10663 | 1.41731 | 6628 ft | 218 kts | 332° |
| 2026-04-30 13:46 | 45.12010 | 1.40717 | 7806 ft | 221 kts | 331° |
| 2026-04-30 13:46 | 45.13379 | 1.39668 | 9021 ft | 224 kts | 331° |
| 2026-04-30 13:46 | 45.14746 | 1.38606 | 10181 ft | 229 kts | 330° |
| 2026-04-30 13:46 | 45.16160 | 1.37496 | 11327 ft | 234 kts | 330° |
| 2026-04-30 13:47 | 45.17603 | 1.36357 | 12481 ft | 240 kts | 330° |
| 2026-04-30 13:47 | 45.19073 | 1.35191 | 13617 ft | 244 kts | 330° |
| 2026-04-30 13:47 | 45.20560 | 1.34008 | 14799 ft | 246 kts | 330° |
| 2026-04-30 13:47 | 45.22050 | 1.32819 | 15915 ft | 251 kts | 330° |
| 2026-04-30 13:48 | 45.23583 | 1.31594 | 17038 ft | 254 kts | 330° |
| 2026-04-30 13:48 | 45.25144 | 1.30345 | 17832 ft | 260 kts | 330° |
| 2026-04-30 13:48 | 45.26731 | 1.29074 | 18123 ft | 264 kts | 330° |
| 2026-04-30 13:48 | 45.28429 | 1.27713 | 18162 ft | 300 kts | 330° |
| 2026-04-30 13:49 | 45.30370 | 1.26154 | 18173 ft | 340 kts | 330° |
| 2026-04-30 13:49 | 45.32526 | 1.24460 | 18156 ft | 375 kts | 334° |
| 2026-04-30 13:49 | 45.35131 | 1.23432 | 18146 ft | 405 kts | 354° |
| 2026-04-30 13:49 | 45.38019 | 1.23073 | 18150 ft | 428 kts | 356° |
| 2026-04-30 13:50 | 45.41045 | 1.22793 | 18135 ft | 438 kts | 357° |
| 2026-04-30 13:50 | 45.47157 | 1.22270 | 18122 ft | 441 kts | 357° |
| 2026-04-30 13:50 | 45.50221 | 1.21987 | 18119 ft | 441 kts | 356° |
| 2026-04-30 13:51 | 45.53289 | 1.21687 | 18118 ft | 441 kts | 356° |
| 2026-04-30 13:51 | 45.56348 | 1.21375 | 18124 ft | 441 kts | 356° |
| 2026-04-30 13:51 | 45.59414 | 1.21055 | 18126 ft | 440 kts | 356° |
| 2026-04-30 13:51 | 45.62436 | 1.20736 | 18125 ft | 440 kts | 356° |
| 2026-04-30 13:52 | 45.65490 | 1.20411 | 18130 ft | 440 kts | 356° |
| 2026-04-30 13:52 | 45.68547 | 1.20085 | 18124 ft | 440 kts | 356° |
| 2026-04-30 13:52 | 45.71600 | 1.19760 | 18128 ft | 440 kts | 356° |
| 2026-04-30 13:52 | 45.74650 | 1.19435 | 18132 ft | 440 kts | 356° |
| 2026-04-30 13:53 | 45.77707 | 1.19109 | 18129 ft | 440 kts | 356° |
| 2026-04-30 13:53 | 45.80765 | 1.18783 | 18128 ft | 440 kts | 356° |
| 2026-04-30 13:53 | 45.83818 | 1.18457 | 18130 ft | 440 kts | 356° |
| 2026-04-30 13:53 | 45.86840 | 1.18134 | 18127 ft | 440 kts | 356° |
| 2026-04-30 13:54 | 45.89890 | 1.17808 | 18125 ft | 440 kts | 356° |
| 2026-04-30 13:54 | 45.92962 | 1.17480 | 18127 ft | 440 kts | 356° |
| 2026-04-30 13:54 | 45.96022 | 1.17152 | 18130 ft | 440 kts | 356° |
| 2026-04-30 13:54 | 45.99084 | 1.16824 | 18129 ft | 440 kts | 356° |
| 2026-04-30 13:55 | 46.02142 | 1.16495 | 18132 ft | 440 kts | 357° |
| 2026-04-30 13:55 | 46.05161 | 1.16170 | 18131 ft | 441 kts | 357° |
| 2026-04-30 13:55 | 46.08219 | 1.15841 | 18128 ft | 441 kts | 357° |
| 2026-04-30 13:55 | 46.11280 | 1.15511 | 18132 ft | 440 kts | 357° |
| 2026-04-30 13:56 | 46.14348 | 1.15181 | 18129 ft | 440 kts | 357° |
| 2026-04-30 13:56 | 46.17411 | 1.14850 | 18129 ft | 440 kts | 357° |
| 2026-04-30 13:56 | 46.20465 | 1.14520 | 18128 ft | 440 kts | 357° |
| 2026-04-30 13:56 | 46.23491 | 1.14192 | 18135 ft | 440 kts | 357° |
| 2026-04-30 13:57 | 46.26559 | 1.13860 | 18128 ft | 440 kts | 357° |
| 2026-04-30 13:57 | 46.29621 | 1.13528 | 18118 ft | 441 kts | 357° |
| 2026-04-30 13:57 | 46.32679 | 1.13196 | 18116 ft | 440 kts | 357° |
| 2026-04-30 13:57 | 46.35739 | 1.12864 | 18112 ft | 440 kts | 357° |
| 2026-04-30 13:58 | 46.38764 | 1.12534 | 18111 ft | 440 kts | 357° |
| 2026-04-30 13:58 | 46.44877 | 1.11868 | 18110 ft | 441 kts | 357° |
| 2026-04-30 13:58 | 46.47944 | 1.11533 | 18114 ft | 441 kts | 357° |
| 2026-04-30 13:59 | 46.51003 | 1.11198 | 18109 ft | 441 kts | 357° |
| 2026-04-30 13:59 | 46.54062 | 1.10864 | 18115 ft | 441 kts | 357° |
| 2026-04-30 13:59 | 46.57128 | 1.10528 | 18113 ft | 441 kts | 357° |
| 2026-04-30 13:59 | 46.60196 | 1.10192 | 18109 ft | 441 kts | 357° |
| 2026-04-30 14:00 | 46.63224 | 1.09860 | 18108 ft | 441 kts | 357° |
| 2026-04-30 14:00 | 46.69359 | 1.09184 | 18102 ft | 442 kts | 357° |
| 2026-04-30 14:00 | 46.72424 | 1.08846 | 18106 ft | 442 kts | 357° |
| 2026-04-30 14:01 | 46.75495 | 1.08507 | 18103 ft | 441 kts | 357° |
| 2026-04-30 14:01 | 46.78559 | 1.08169 | 18108 ft | 441 kts | 357° |
| 2026-04-30 14:01 | 46.81627 | 1.07830 | 18099 ft | 441 kts | 357° |
| 2026-04-30 14:01 | 46.84656 | 1.07495 | 18099 ft | 441 kts | 357° |
| 2026-04-30 14:02 | 46.87731 | 1.07154 | 18097 ft | 441 kts | 357° |
| 2026-04-30 14:02 | 46.90791 | 1.06814 | 18095 ft | 442 kts | 357° |
| 2026-04-30 14:02 | 46.93863 | 1.06473 | 18094 ft | 442 kts | 357° |
| 2026-04-30 14:02 | 46.96931 | 1.06132 | 18092 ft | 442 kts | 357° |
| 2026-04-30 14:03 | 46.99999 | 1.05791 | 18098 ft | 441 kts | 357° |
| 2026-04-30 14:03 | 47.03068 | 1.05692 | 18087 ft | 440 kts | 5° |
| 2026-04-30 14:03 | 47.06100 | 1.06293 | 18095 ft | 438 kts | 13° |
| 2026-04-30 14:03 | 47.09055 | 1.07139 | 18087 ft | 438 kts | 13° |
| 2026-04-30 14:04 | 47.12047 | 1.08036 | 18089 ft | 438 kts | 14° |
| 2026-04-30 14:04 | 47.15036 | 1.08936 | 18078 ft | 438 kts | 14° |
| 2026-04-30 14:04 | 47.18034 | 1.09827 | 18086 ft | 438 kts | 13° |
| 2026-04-30 14:04 | 47.21033 | 1.10704 | 18087 ft | 438 kts | 13° |
| 2026-04-30 14:05 | 47.23993 | 1.11560 | 18084 ft | 438 kts | 13° |
| 2026-04-30 14:05 | 47.26988 | 1.12418 | 18082 ft | 438 kts | 13° |
| 2026-04-30 14:05 | 47.29986 | 1.13274 | 18083 ft | 438 kts | 13° |
| 2026-04-30 14:05 | 47.32991 | 1.14131 | 18086 ft | 438 kts | 13° |
| 2026-04-30 14:06 | 47.35985 | 1.14985 | 18082 ft | 438 kts | 13° |
| 2026-04-30 14:06 | 47.41950 | 1.16691 | 18079 ft | 438 kts | 13° |
| 2026-04-30 14:07 | 47.47937 | 1.18409 | 18083 ft | 438 kts | 13° |
| 2026-04-30 14:07 | 47.50933 | 1.19270 | 18087 ft | 437 kts | 13° |
| 2026-04-30 14:07 | 47.53919 | 1.20129 | 18084 ft | 438 kts | 13° |
| 2026-04-30 14:08 | 47.59867 | 1.21844 | 18090 ft | 438 kts | 13° |
| 2026-04-30 14:08 | 47.62855 | 1.22707 | 18081 ft | 438 kts | 13° |
| 2026-04-30 14:08 | 47.68847 | 1.24441 | 18085 ft | 438 kts | 13° |
| 2026-04-30 14:09 | 47.71835 | 1.25306 | 18081 ft | 437 kts | 13° |
| 2026-04-30 14:09 | 47.74824 | 1.26173 | 18087 ft | 437 kts | 13° |
| 2026-04-30 14:09 | 47.80770 | 1.27901 | 18088 ft | 437 kts | 13° |
| 2026-04-30 14:10 | 47.83757 | 1.28771 | 18087 ft | 437 kts | 13° |
| 2026-04-30 14:10 | 47.86743 | 1.29642 | 18094 ft | 437 kts | 13° |
| 2026-04-30 14:10 | 47.89738 | 1.30516 | 18097 ft | 437 kts | 13° |
| 2026-04-30 14:10 | 47.92730 | 1.31389 | 18087 ft | 437 kts | 13° |
| 2026-04-30 14:11 | 47.95710 | 1.32262 | 18097 ft | 437 kts | 13° |
| 2026-04-30 14:11 | 47.98660 | 1.33126 | 18100 ft | 437 kts | 13° |
| 2026-04-30 14:11 | 48.01645 | 1.34001 | 18102 ft | 437 kts | 14° |
| 2026-04-30 14:11 | 48.04641 | 1.34881 | 18101 ft | 437 kts | 14° |
| 2026-04-30 14:12 | 48.07624 | 1.35758 | 18105 ft | 437 kts | 14° |
| 2026-04-30 14:12 | 48.10610 | 1.36636 | 18102 ft | 437 kts | 14° |
| 2026-04-30 14:12 | 48.13554 | 1.37503 | 18103 ft | 437 kts | 14° |
| 2026-04-30 14:12 | 48.15568 | 1.38097 | 18101 ft | 437 kts | 14° |
| 2026-04-30 14:13 | 48.19517 | 1.39263 | 18105 ft | 436 kts | 14° |
| 2026-04-30 14:13 | 48.22505 | 1.40147 | 18106 ft | 436 kts | 14° |
| 2026-04-30 14:13 | 48.25490 | 1.41032 | 18111 ft | 437 kts | 14° |
| 2026-04-30 14:13 | 48.28479 | 1.41918 | 18111 ft | 437 kts | 14° |
| 2026-04-30 14:14 | 48.31468 | 1.42804 | 18116 ft | 437 kts | 14° |
| 2026-04-30 14:14 | 48.34412 | 1.43678 | 18103 ft | 437 kts | 14° |
| 2026-04-30 14:14 | 48.37397 | 1.44566 | 18105 ft | 437 kts | 14° |
| 2026-04-30 14:14 | 48.40395 | 1.45458 | 18113 ft | 437 kts | 14° |
| 2026-04-30 14:15 | 48.43383 | 1.46349 | 18117 ft | 436 kts | 14° |
| 2026-04-30 14:15 | 48.46327 | 1.47228 | 18113 ft | 436 kts | 14° |
| 2026-04-30 14:15 | 48.49310 | 1.48120 | 18122 ft | 436 kts | 14° |
| 2026-04-30 14:15 | 48.52290 | 1.49012 | 18117 ft | 437 kts | 14° |
| 2026-04-30 14:16 | 48.55284 | 1.49908 | 18116 ft | 437 kts | 14° |
| 2026-04-30 14:16 | 48.58225 | 1.50996 | 18103 ft | 433 kts | 23° |
| 2026-04-30 14:16 | 48.60942 | 1.52926 | 18124 ft | 431 kts | 30° |
| 2026-04-30 14:16 | 48.63580 | 1.54959 | 17472 ft | 430 kts | 30° |
| 2026-04-30 14:17 | 48.66225 | 1.56996 | 16525 ft | 421 kts | 29° |
| 2026-04-30 14:17 | 48.68801 | 1.58943 | 15540 ft | 406 kts | 29° |
| 2026-04-30 14:17 | 48.71306 | 1.60809 | 14590 ft | 394 kts | 28° |
| 2026-04-30 14:17 | 48.73741 | 1.62612 | 13641 ft | 384 kts | 28° |
| 2026-04-30 14:18 | 48.76069 | 1.64419 | 12717 ft | 366 kts | 34° |
| 2026-04-30 14:18 | 48.78045 | 1.66733 | 11822 ft | 355 kts | 45° |
| 2026-04-30 14:18 | 48.80986 | 1.72438 | 10455 ft | 332 kts | 61° |
| 2026-04-30 14:19 | 48.83168 | 1.78106 | 9977 ft | 291 kts | 62° |
| 2026-04-30 14:19 | 48.84156 | 1.80689 | 9763 ft | 273 kts | 62° |
| 2026-04-30 14:19 | 48.85123 | 1.83213 | 9084 ft | 279 kts | 62° |
| 2026-04-30 14:20 | 48.86090 | 1.85732 | 8553 ft | 279 kts | 62° |
| 2026-04-30 14:20 | 48.87064 | 1.88268 | 8032 ft | 278 kts | 62° |
| 2026-04-30 14:20 | 48.88976 | 1.93231 | 7494 ft | 260 kts | 62° |
| 2026-04-30 14:21 | 48.89828 | 1.95441 | 7387 ft | 247 kts | 63° |
| 2026-04-30 14:21 | 48.90683 | 1.97663 | 7264 ft | 239 kts | 63° |
| 2026-04-30 14:21 | 48.92279 | 2.01812 | 7061 ft | 218 kts | 63° |
| 2026-04-30 14:22 | 48.93051 | 2.03826 | 6706 ft | 224 kts | 63° |
| 2026-04-30 14:22 | 48.94668 | 2.08056 | 5888 ft | 233 kts | 63° |
| 2026-04-30 14:22 | 48.95477 | 2.10165 | 5547 ft | 232 kts | 63° |
| 2026-04-30 14:23 | 48.96827 | 2.14486 | 5034 ft | 223 kts | 80° |
| 2026-04-30 14:23 | 48.97352 | 2.19175 | 4999 ft | 224 kts | 86° |
| 2026-04-30 14:24 | 48.97624 | 2.23957 | 4473 ft | 225 kts | 88° |
| 2026-04-30 14:24 | 48.97736 | 2.26314 | 4187 ft | 223 kts | 88° |
| 2026-04-30 14:25 | 48.97963 | 2.30889 | 3631 ft | 210 kts | 87° |
| 2026-04-30 14:25 | 48.98189 | 2.35110 | 3083 ft | 189 kts | 85° |
| 2026-04-30 14:26 | 48.98363 | 2.38907 | 2615 ft | 177 kts | 87° |
| 2026-04-30 14:26 | 48.98462 | 2.40751 | 2390 ft | 175 kts | 87° |
| 2026-04-30 14:26 | 48.98645 | 2.44393 | 1890 ft | 168 kts | 86° |
| 2026-04-30 14:27 | 48.98711 | 2.45545 | 1781 ft | 163 kts | 87° |
| 2026-04-30 14:27 | 48.98840 | 2.47749 | 1502 ft | 149 kts | 87° |
| 2026-04-30 14:27 | 48.98908 | 2.49261 | 1317 ft | 138 kts | 87° |
| 2026-04-30 14:28 | 48.99028 | 2.51570 | 1011 ft | 121 kts | 87° |
| 2026-04-30 14:28 | 48.99093 | 2.52778 | 847 ft | 112 kts | 88° |
| 2026-04-30 14:28 | 48.99175 | 2.54287 | 659 ft | 107 kts | 87° |
| 2026-04-30 14:28 | 48.99217 | 2.55057 | 567 ft | 109 kts | 88° |
| 2026-04-30 14:29 | 48.99339 | 2.57416 | 352 ft | 107 kts | 86° |
| 2026-04-30 14:29 | 48.99416 | 2.58910 | 350 ft | 54 kts | 85° |
| 2026-04-30 14:30 | 48.99657 | 2.59690 | 353 ft | 19 kts | 1° |
| 2026-04-30 14:31 | 48.99949 | 2.59656 | 353 ft | 22 kts | 355° |
| 2026-04-30 14:31 | 49.00073 | 2.59455 | 353 ft | 15 kts | 266° |
| 2026-04-30 14:31 | 49.00066 | 2.59301 | 353 ft | 14 kts | 264° |
| 2026-04-30 14:32 | 49.00043 | 2.58875 | 353 ft | 28 kts | 265° |
| 2026-04-30 14:32 | 49.00026 | 2.58559 | 353 ft | 31 kts | 265° |
| 2026-04-30 14:32 | 49.00008 | 2.58229 | 353 ft | 31 kts | 265° |
| 2026-04-30 14:33 | 48.99991 | 2.57902 | 353 ft | 30 kts | 266° |
| 2026-04-30 14:33 | 48.99959 | 2.57296 | 355 ft | 27 kts | 265° |
| 2026-04-30 14:33 | 48.99944 | 2.57025 | 360 ft | 25 kts | 265° |
| 2026-04-30 14:34 | 48.99931 | 2.56771 | 356 ft | 25 kts | 265° |
| 2026-04-30 14:34 | 48.99915 | 2.56484 | 362 ft | 29 kts | 265° |
| 2026-04-30 14:34 | 48.99898 | 2.56159 | 356 ft | 32 kts | 265° |
| 2026-04-30 14:34 | 48.99912 | 2.55824 | 362 ft | 32 kts | 287° |
| 2026-04-30 14:35 | 48.99972 | 2.55199 | 353 ft | 30 kts | 265° |
| 2026-04-30 14:35 | 48.99955 | 2.54886 | 360 ft | 29 kts | 265° |
| 2026-04-30 14:35 | 48.99941 | 2.54593 | 358 ft | 27 kts | 266° |
| 2026-04-30 14:36 | 48.99925 | 2.54321 | 353 ft | 25 kts | 265° |
| 2026-04-30 14:36 | 48.99912 | 2.54072 | 354 ft | 23 kts | 265° |
| 2026-04-30 14:36 | 48.99898 | 2.53818 | 353 ft | 25 kts | 265° |
| 2026-04-30 14:36 | 48.99833 | 2.53678 | 359 ft | 15 kts | 159° |
| 2026-04-30 14:37 | 48.99740 | 2.53742 | 359 ft | 16 kts | 207° |
| 2026-04-30 14:37 | 48.99641 | 2.53614 | 356 ft | 22 kts | 220° |
| 2026-04-30 14:37 | 48.99507 | 2.53462 | 352 ft | 26 kts | 196° |
| 2026-04-30 14:37 | 48.99339 | 2.53474 | 352 ft | 18 kts | 175° |
| 2026-04-30 14:38 | 48.99307 | 2.53510 | 352 ft | 6 kts | 94° |
| 2026-04-30 14:38 | 48.99312 | 2.53601 | 352 ft | 12 kts | 86° |
| 2026-04-30 14:38 | 48.99294 | 2.53712 | 352 ft | 10 kts | 158° |
| 2026-04-30 14:38 | 48.99232 | 2.53683 | 357 ft | 3 kts | 204° |
| 2026-04-30 14:39 | 48.99230 | 2.53682 | 352 ft | 0 kts | 204° |